Time;durP1;ratioP1;P1;durP2;ratioP2;P2;SDS_P1;SDS_P2;PMS_P1;PMS_P2;Temp;Humidity;BMP_temperature;BMP_pressure;BME280_temperature;BME280_humidity;BME280_pressure;Samples;Min_cycle;Max_cycle;Signal;HPM_P1;HPM_P2
2022/08/09 00:00:48;;;;;;;6.20;4.40;;;;;;;18.18;72.64;101799.47;5080665;28;20114;-80
2022/08/09 00:03:16;;;;;;;10.43;4.57;;;;;;;18.17;72.41;101805.75;5082857;28;20048;-81
2022/08/09 00:05:42;;;;;;;7.65;4.72;;;;;;;18.16;72.48;101801.47;5081930;28;20064;-83
2022/08/09 00:08:10;;;;;;;9.27;4.80;;;;;;;18.15;72.48;101810.41;5084048;28;20302;-81
2022/08/09 00:10:37;;;;;;;9.65;4.78;;;;;;;18.17;72.57;101811.06;5079944;28;20123;-81
2022/08/09 00:13:05;;;;;;;6.82;4.45;;;;;;;18.15;72.78;101809.59;5075005;28;20036;-79
2022/08/09 00:15:32;;;;;;;8.30;4.80;;;;;;;18.10;72.92;101802.19;5073404;28;20418;-79
2022/08/09 00:17:58;;;;;;;6.32;4.88;;;;;;;18.07;72.93;101809.66;5073515;28;20055;-78
2022/08/09 00:20:27;;;;;;;8.98;4.85;;;;;;;18.01;73.12;101803.22;5073124;28;20052;-78
2022/08/09 00:22:53;;;;;;;8.65;4.68;;;;;;;17.97;73.53;101795.81;5073689;28;20076;-80
2022/08/09 00:25:20;;;;;;;5.97;5.05;;;;;;;17.95;73.49;101795.19;5073351;28;20103;-78
2022/08/09 00:27:47;;;;;;;6.68;4.50;;;;;;;17.94;73.48;101801.47;5073653;28;20080;-79
2022/08/09 00:30:14;;;;;;;8.80;5.18;;;;;;;17.89;73.96;101799.38;5072693;28;20467;-79
2022/08/09 00:32:40;;;;;;;8.88;4.57;;;;;;;17.86;74.14;101797.06;5056397;28;20049;-79
2022/08/09 00:35:08;;;;;;;10.27;5.30;;;;;;;17.84;73.61;101797.25;5055654;28;20471;-79
2022/08/09 00:37:36;;;;;;;6.88;4.72;;;;;;;17.86;73.95;101791.75;5054752;28;20084;-79
2022/08/09 00:40:03;;;;;;;10.32;5.25;;;;;;;17.82;74.01;101798.41;5065023;28;20087;-81
2022/08/09 00:42:30;;;;;;;8.90;4.65;;;;;;;17.79;74.14;101799.59;5076752;28;20048;-80
2022/08/09 00:44:57;;;;;;;6.60;4.68;;;;;;;17.78;74.15;101794.47;5074639;28;20041;-80
2022/08/09 00:47:23;;;;;;;7.40;4.97;;;;;;;17.77;74.19;101803.41;5074861;28;20052;-79
2022/08/09 00:49:50;;;;;;;7.30;4.60;;;;;;;17.72;74.36;101803.91;5088558;28;20494;-79
2022/08/09 00:52:17;;;;;;;7.07;4.60;;;;;;;17.71;74.39;101810.22;5074788;28;20102;-80
2022/08/09 00:54:47;;;;;;;8.80;5.05;;;;;;;17.69;74.56;101809.56;5074117;28;20114;-79
2022/08/09 00:57:13;;;;;;;11.02;5.07;;;;;;;17.67;74.40;101816.03;5073475;28;20053;-79
2022/08/09 00:59:43;;;;;;;9.32;5.32;;;;;;;17.67;74.99;101816.03;5072828;28;20044;-78
2022/08/09 01:02:10;;;;;;;6.90;5.03;;;;;;;17.58;75.00;101813.38;5073124;28;20091;-79
2022/08/09 01:04:45;;;;;;;9.20;5.03;;;;;;;17.57;75.15;101811.72;5062492;28;20051;-79
2022/08/09 01:07:20;;;;;;;12.55;5.82;;;;;;;17.49;75.53;101814.41;5073428;28;20053;-78
2022/08/09 01:09:56;;;;;;;12.38;5.25;;;;;;;17.42;75.96;101804.72;5072809;28;20112;-79
2022/08/09 01:12:32;;;;;;;8.45;5.50;;;;;;;17.38;76.11;101817.47;5072795;28;20084;-79
2022/08/09 01:15:02;;;;;;;10.20;5.22;;;;;;;17.39;75.90;101813.81;5072246;28;20100;-79
2022/08/09 01:17:35;;;;;;;8.75;5.15;;;;;;;17.31;76.33;101803.28;5073458;28;20159;-79
2022/08/09 01:20:06;;;;;;;5.82;4.72;;;;;;;17.30;76.31;101812.19;5079467;28;20128;-82
2022/08/09 01:22:51;;;;;;;9.73;5.00;;;;;;;17.27;76.51;101803.78;5071487;28;20049;-80
2022/08/09 01:25:37;;;;;;;7.38;5.10;;;;;;;17.26;76.63;101802.97;5072515;28;20070;-78
2022/08/09 01:28:08;;;;;;;7.05;5.47;;;;;;;17.21;76.88;101806.13;5081423;28;20155;-79
2022/08/09 01:30:37;;;;;;;6.90;5.45;;;;;;;17.16;77.16;101813.72;5079051;28;20098;-79
2022/08/09 01:33:08;;;;;;;6.70;5.13;;;;;;;17.11;77.28;101809.94;5078978;28;20048;-78
2022/08/09 01:35:40;;;;;;;7.85;4.80;;;;;;;17.08;77.28;101803.19;5079095;28;20481;-79
2022/08/09 01:38:10;;;;;;;9.50;5.28;;;;;;;17.05;77.35;101805.34;5085065;28;20062;-79
2022/08/09 01:40:41;;;;;;;7.10;5.15;;;;;;;17.09;77.24;101804.81;5084071;28;20048;-80
2022/08/09 01:43:10;;;;;;;10.30;5.25;;;;;;;17.04;77.68;101801.84;5083735;28;20052;-81
2022/08/09 01:45:39;;;;;;;6.88;5.00;;;;;;;17.08;77.46;101810.28;5084712;28;20045;-81
2022/08/09 01:48:07;;;;;;;7.65;5.32;;;;;;;17.08;77.55;101802.34;5090366;28;20061;-80
2022/08/09 01:50:35;;;;;;;7.32;5.20;;;;;;;17.08;77.90;101812.94;5089520;28;20082;-81
2022/08/09 01:53:03;;;;;;;6.97;5.00;;;;;;;17.09;77.60;101811.94;5089762;28;20052;-81
2022/08/09 01:55:33;;;;;;;7.15;5.07;;;;;;;17.04;77.88;101814.25;5089309;28;20049;-80
2022/08/09 01:58:01;;;;;;;7.43;5.30;;;;;;;17.03;77.83;101810.78;5090638;28;20044;-81
2022/08/09 02:00:30;;;;;;;8.77;5.40;;;;;;;17.04;77.80;101811.63;5090894;28;20048;-80
2022/08/09 02:02:59;;;;;;;6.68;5.32;;;;;;;17.01;77.84;101804.88;5091304;28;20239;-81
2022/08/09 02:05:26;;;;;;;7.80;5.15;;;;;;;16.96;78.15;101811.66;5096980;22;20044;-79
2022/08/09 02:07:57;;;;;;;7.38;5.20;;;;;;;16.90;78.80;101805.22;5071962;28;20669;-79
2022/08/09 02:10:29;;;;;;;8.20;5.00;;;;;;;16.94;78.29;101808.34;5080731;28;20072;-80
2022/08/09 02:12:57;;;;;;;9.27;5.13;;;;;;;16.87;78.54;101808.22;5083439;28;20113;-80
2022/08/09 02:15:25;;;;;;;8.48;5.13;;;;;;;16.86;78.64;101811.84;5072882;28;20052;-80
2022/08/09 02:17:54;;;;;;;8.77;4.97;;;;;;;16.84;78.61;101813.81;5082250;28;20064;-78
2022/08/09 02:20:21;;;;;;;9.20;4.88;;;;;;;16.80;79.28;101812.50;5082214;28;20047;-80
2022/08/09 02:22:52;;;;;;;11.32;4.93;;;;;;;16.74;79.38;101808.72;5082378;28;20084;-79
2022/08/09 02:25:22;;;;;;;6.30;4.65;;;;;;;16.74;79.52;101813.19;5081198;28;20135;-79
2022/08/09 02:27:54;;;;;;;7.35;4.90;;;;;;;16.73;79.65;101817.63;5081081;28;20197;-79
2022/08/09 02:30:21;;;;;;;6.72;5.05;;;;;;;16.69;79.85;101811.03;5080850;28;20056;-80
2022/08/09 02:32:49;;;;;;;8.82;5.43;;;;;;;16.73;79.68;101817.63;5080802;28;20052;-79
2022/08/09 02:35:23;;;;;;;8.52;5.07;;;;;;;16.66;79.78;101816.66;5077452;28;20076;-77
2022/08/09 02:37:52;;;;;;;7.88;5.13;;;;;;;16.65;80.07;101812.34;5075096;28;20443;-76
2022/08/09 02:40:21;;;;;;;6.40;4.80;;;;;;;16.67;80.10;101813.03;5073763;28;20098;-77
2022/08/09 02:42:51;;;;;;;8.00;5.30;;;;;;;16.61;80.30;101803.06;5074488;28;20162;-77
2022/08/09 02:45:23;;;;;;;6.47;4.82;;;;;;;16.61;80.40;101808.38;5073903;28;20044;-77
2022/08/09 02:47:53;;;;;;;7.90;5.28;;;;;;;16.59;80.62;101815.63;5075210;28;20068;-76
2022/08/09 02:50:26;;;;;;;5.80;4.95;;;;;;;16.58;80.74;101801.59;5075315;28;20052;-77
2022/08/09 02:52:56;;;;;;;8.18;5.10;;;;;;;16.55;80.73;101803.75;5072744;28;20105;-77
2022/08/09 02:55:25;;;;;;;8.93;5.18;;;;;;;16.53;81.04;101803.94;5072355;28;20097;-77
2022/08/09 02:57:53;;;;;;;8.27;5.13;;;;;;;16.53;81.34;101813.69;5073439;28;20083;-76
2022/08/09 03:00:22;;;;;;;7.20;5.00;;;;;;;16.47;81.47;101817.81;5073718;28;20059;-77
2022/08/09 03:02:53;;;;;;;10.98;5.38;;;;;;;16.42;81.82;101809.56;5075168;28;20068;-78
2022/08/09 03:05:22;;;;;;;7.47;5.35;;;;;;;16.40;81.83;101808.06;5075956;28;20071;-77
2022/08/09 03:07:51;;;;;;;8.05;5.63;;;;;;;16.41;81.71;101812.34;5075573;28;20522;-78
2022/08/09 03:10:20;;;;;;;6.75;5.13;;;;;;;16.38;81.99;101810.88;5076310;28;20072;-78
2022/08/09 03:12:49;;;;;;;7.07;5.05;;;;;;;16.33;82.82;101812.34;5077178;28;20055;-78
2022/08/09 03:15:16;;;;;;;10.43;5.13;;;;;;;16.25;83.05;101816.63;5079167;28;20075;-78
2022/08/09 03:17:44;;;;;;;9.30;5.40;;;;;;;16.22;82.77;101810.84;5080980;28;20072;-79
2022/08/09 03:20:12;;;;;;;7.18;5.10;;;;;;;16.18;83.39;101820.91;5080555;28;20139;-79
2022/08/09 03:22:45;;;;;;;6.63;4.97;;;;;;;16.16;83.57;101814.97;5068068;28;20131;-80
2022/08/09 03:25:13;;;;;;;6.45;4.85;;;;;;;16.15;83.70;101807.22;5074250;28;20048;-80
2022/08/09 03:27:40;;;;;;;9.52;5.18;;;;;;;16.19;83.55;101825.22;5077597;28;20047;-79
2022/08/09 03:30:08;;;;;;;8.20;5.78;;;;;;;16.19;83.77;101813.81;5078673;28;20087;-79
2022/08/09 03:32:36;;;;;;;9.73;5.13;;;;;;;16.20;83.95;101813.66;5059238;28;20080;-80
2022/08/09 03:35:04;;;;;;;6.72;5.18;;;;;;;16.18;83.86;101813.00;5063501;28;20087;-80
2022/08/09 03:37:31;;;;;;;6.32;4.97;;;;;;;16.14;83.78;101824.88;5077612;28;20102;-80
2022/08/09 03:39:59;;;;;;;8.45;5.10;;;;;;;16.13;84.19;101819.75;5077246;28;20121;-79
2022/08/09 03:42:26;;;;;;;6.90;5.43;;;;;;;16.08;84.06;101822.06;5076576;28;20400;-79
2022/08/09 03:44:53;;;;;;;9.20;5.25;;;;;;;16.01;84.81;101826.38;5076894;28;20045;-80
2022/08/09 03:47:19;;;;;;;7.97;4.90;;;;;;;16.03;84.50;101825.22;5077379;28;20049;-80
2022/08/09 03:49:48;;;;;;;8.65;4.97;;;;;;;16.01;84.66;101826.38;5076884;28;20093;-80
2022/08/09 03:52:17;;;;;;;6.88;5.50;;;;;;;15.95;85.23;101833.13;5077140;28;20079;-80
2022/08/09 03:54:46;;;;;;;11.63;5.80;;;;;;;15.94;85.12;101831.47;5076300;28;20079;-78
2022/08/09 03:57:15;;;;;;;8.80;5.65;;;;;;;15.86;85.31;101828.81;5076658;28;20481;-80
2022/08/09 03:59:42;;;;;;;7.40;5.57;;;;;;;15.83;85.44;101829.94;5075401;28;20076;-80
2022/08/09 04:02:09;;;;;;;8.52;5.63;;;;;;;15.81;85.83;101831.91;5079273;28;20056;-81
2022/08/09 04:04:36;;;;;;;8.38;5.97;;;;;;;15.77;85.70;101832.41;5079028;28;20083;-81
2022/08/09 04:07:04;;;;;;;11.13;5.35;;;;;;;15.73;85.80;101838.97;5080162;28;20083;-81
2022/08/09 04:09:30;;;;;;;9.73;5.40;;;;;;;15.70;85.91;101840.13;5080491;28;20044;-80
2022/08/09 04:12:21;;;;;;;7.15;5.75;;;;;;;15.70;85.75;101844.56;5081017;28;20052;-80
2022/08/09 04:14:47;;;;;;;8.48;5.65;;;;;;;15.63;86.04;101848.84;5080411;28;20048;-80
2022/08/09 04:17:14;;;;;;;11.10;6.10;;;;;;;15.62;86.19;101847.19;5080154;28;20155;-79
2022/08/09 04:19:41;;;;;;;7.28;5.57;;;;;;;15.57;86.41;101845.88;5080072;28;20049;-80
2022/08/09 04:22:08;;;;;;;9.30;6.30;;;;;;;15.57;86.36;101845.88;5081219;28;20065;-80
2022/08/09 04:24:34;;;;;;;8.95;5.65;;;;;;;15.69;86.39;101848.19;5078832;28;20091;-79
2022/08/09 04:27:01;;;;;;;7.72;5.50;;;;;;;15.73;86.48;101854.81;5079019;28;20129;-79
2022/08/09 04:29:29;;;;;;;7.60;5.68;;;;;;;15.76;86.23;101852.69;5078441;28;20098;-80
2022/08/09 04:31:56;;;;;;;11.98;5.57;;;;;;;15.85;86.11;101858.81;5079179;28;20052;-80
2022/08/09 04:34:22;;;;;;;6.93;5.15;;;;;;;15.96;85.79;101858.53;5078100;28;20095;-79
2022/08/09 04:36:49;;;;;;;7.20;5.30;;;;;;;16.03;85.69;101864.81;5076395;28;20069;-79
2022/08/09 04:39:15;;;;;;;10.93;5.70;;;;;;;16.12;85.36;101870.91;5076542;28;20079;-79
2022/08/09 04:41:42;;;;;;;8.45;5.18;;;;;;;16.20;84.72;101866.47;5078181;28;20053;-79
2022/08/09 04:44:10;;;;;;;8.63;5.75;;;;;;;16.26;84.31;101865.84;5078678;28;20052;-80
2022/08/09 04:46:40;;;;;;;9.27;5.47;;;;;;;16.37;83.58;101871.78;5079508;28;20048;-79
2022/08/09 04:49:06;;;;;;;10.55;6.15;;;;;;;16.39;83.79;101861.88;5079899;28;20056;-79
2022/08/09 04:51:33;;;;;;;8.98;5.70;;;;;;;16.42;83.39;101864.19;5080325;28;20076;-80
2022/08/09 04:54:00;;;;;;;8.85;6.03;;;;;;;16.53;83.01;101869.16;5079500;28;20096;-79
2022/08/09 04:56:26;;;;;;;9.00;4.97;;;;;;;16.64;82.78;101870.63;5080380;28;20356;-79
2022/08/09 04:58:53;;;;;;;7.43;5.70;;;;;;;16.72;82.69;101868.03;5083520;28;20091;-79
2022/08/09 05:01:20;;;;;;;9.02;4.97;;;;;;;16.96;81.65;101861.91;5083631;28;20104;-81
2022/08/09 05:03:49;;;;;;;11.27;5.57;;;;;;;17.22;80.45;101854.56;5084768;28;20056;-79
2022/08/09 05:06:16;;;;;;;8.30;5.22;;;;;;;17.27;80.18;101854.03;5084814;28;20044;-80
2022/08/09 05:08:43;;;;;;;10.95;5.30;;;;;;;17.21;80.06;101858.19;5085402;28;20131;-80
2022/08/09 05:11:09;;;;;;;12.07;6.15;;;;;;;17.24;80.04;101852.56;5085470;28;20036;-80
2022/08/09 05:13:36;;;;;;;7.25;5.70;;;;;;;17.24;80.30;101852.56;5085529;28;20114;-80
2022/08/09 05:16:03;;;;;;;7.40;5.15;;;;;;;17.24;80.58;101852.56;5084755;28;20056;-80
2022/08/09 05:18:32;;;;;;;11.40;5.38;;;;;;;17.32;80.20;101863.13;5085211;28;20475;-79
2022/08/09 05:21:00;;;;;;;5.97;4.93;;;;;;;17.68;79.22;101854.72;5084752;28;20072;-79
2022/08/09 05:23:27;;;;;;;10.88;5.50;;;;;;;18.12;77.14;101858.44;5078867;28;20533;-80
2022/08/09 05:25:54;;;;;;;9.40;5.38;;;;;;;18.21;76.86;101868.00;5083848;28;20107;-80
2022/08/09 05:28:21;;;;;;;13.07;5.75;;;;;;;18.40;76.58;101864.06;5084797;28;20063;-80
2022/08/09 05:30:48;;;;;;;8.98;5.20;;;;;;;19.05;74.34;101855.53;5084398;28;20044;-80
2022/08/09 05:33:15;;;;;;;7.93;5.05;;;;;;;19.99;71.03;101848.56;5085039;28;20048;-80
2022/08/09 05:35:41;;;;;;;8.85;4.68;;;;;;;20.82;68.36;101845.22;5083603;28;20084;-81
2022/08/09 05:38:10;;;;;;;6.15;4.63;;;;;;;21.44;66.63;101844.41;5085513;28;20047;-82
2022/08/09 05:40:37;;;;;;;7.43;4.78;;;;;;;22.37;63.74;101850.81;5088010;28;20044;-80
2022/08/09 05:43:03;;;;;;;7.32;4.28;;;;;;;23.14;61.51;101852.81;5087822;28;20048;-81
2022/08/09 05:45:30;;;;;;;8.35;4.40;;;;;;;23.27;60.87;101854.63;5086817;28;20040;-81
2022/08/09 05:47:57;;;;;;;6.25;4.75;;;;;;;23.50;59.75;101856.81;5087906;28;20044;-80
2022/08/09 05:50:24;;;;;;;8.13;4.50;;;;;;;23.90;59.22;101849.44;5085902;28;20140;-79
2022/08/09 05:52:51;;;;;;;7.68;4.43;;;;;;;;;;5085326;28;20136;-79
2022/08/09 05:55:19;;;;;;;8.73;4.68;;;;;;;23.28;60.15;101858.09;5084501;28;20072;-79
2022/08/09 05:57:46;;;;;;;9.27;4.88;;;;;;;24.15;58.27;101855.63;5085553;28;20179;-80
2022/08/09 06:00:13;;;;;;;5.78;4.50;;;;;;;23.82;58.09;101860.38;5085795;28;20076;-79
2022/08/09 06:02:40;;;;;;;10.90;4.63;;;;;;;24.08;57.85;101856.75;5089215;28;20125;-80
2022/08/09 06:05:08;;;;;;;8.45;4.65;;;;;;;24.09;57.60;101858.38;5090049;28;20116;-81
2022/08/09 06:07:35;;;;;;;6.60;4.75;;;;;;;24.43;57.23;101865.97;5085998;28;20416;-79
2022/08/09 06:10:01;;;;;;;8.10;4.60;;;;;;;24.55;57.06;101868.78;5084849;28;20091;-79
2022/08/09 06:12:30;;;;;;;11.18;4.80;;;;;;;25.01;56.15;101868.38;5064774;28;20100;-79
2022/08/09 06:14:57;;;;;;;12.50;5.10;;;;;;;25.56;54.83;101859.47;5064553;28;20049;-79
2022/08/09 06:17:23;;;;;;;5.18;4.38;;;;;;;25.28;55.18;101868.88;5084618;28;20040;-79
2022/08/09 06:19:50;;;;;;;6.10;4.75;;;;;;;25.38;54.40;101869.19;5086326;28;20048;-80
2022/08/09 06:22:17;;;;;;;6.95;4.65;;;;;;;24.92;55.58;101866.16;5087180;28;20055;-81
2022/08/09 06:24:43;;;;;;;9.10;4.80;;;;;;;25.11;55.44;101871.31;5088625;28;20048;-81
2022/08/09 06:27:10;;;;;;;9.50;4.50;;;;;;;25.11;55.78;101871.31;5088645;28;20041;-82
2022/08/09 06:29:38;;;;;;;9.10;5.00;;;;;;;24.95;55.27;101871.06;5087975;28;20057;-81
2022/08/09 06:32:05;;;;;;;5.82;4.85;;;;;;;25.94;54.05;101864.59;5087184;28;20052;-82
2022/08/09 06:34:32;;;;;;;9.25;5.03;;;;;;;26.29;53.20;101867.34;5090890;28;20631;-82
2022/08/09 06:36:59;;;;;;;10.10;4.90;;;;;;;26.70;52.35;101874.53;5087049;28;20052;-82
2022/08/09 06:39:25;;;;;;;9.15;4.82;;;;;;;27.31;50.94;101871.38;5086965;28;20071;-82
2022/08/09 06:41:52;;;;;;;12.75;4.75;;;;;;;27.65;50.02;101871.53;5087747;28;20052;-82
2022/08/09 06:44:18;;;;;;;6.05;4.65;;;;;;;27.25;49.79;101868.81;5087495;28;20080;-82
2022/08/09 06:46:49;;;;;;;9.13;4.90;;;;;;;26.46;50.82;101868.34;5086469;28;20072;-81
2022/08/09 06:49:15;;;;;;;6.93;4.82;;;;;;;25.71;52.62;101857.25;5084887;28;20127;-82
2022/08/09 06:51:42;;;;;;;11.57;5.22;;;;;;;26.67;51.07;101865.09;5085113;28;20104;-81
2022/08/09 06:54:09;;;;;;;8.32;5.20;;;;;;;27.37;49.54;101864.22;5084526;28;20095;-82
2022/08/09 06:56:35;;;;;;;7.05;5.10;;;;;;;27.37;48.47;101859.66;5085404;28;20067;-82
2022/08/09 06:59:02;;;;;;;5.80;4.50;;;;;;;26.70;49.77;101867.31;5084245;28;20061;-81
2022/08/09 07:01:28;;;;;;;11.43;5.28;;;;;;;25.16;52.65;101881.38;5079082;28;20127;-81
2022/08/09 07:03:56;;;;;;;9.77;4.90;;;;;;;26.45;51.56;101877.47;5080020;28;20075;-82
2022/08/09 07:06:24;;;;;;;7.90;4.80;;;;;;;27.27;48.95;101875.59;5079502;28;20053;-82
2022/08/09 07:08:51;;;;;;;6.55;4.25;;;;;;;27.26;48.95;101879.31;5079141;28;20068;-80
2022/08/09 07:11:17;;;;;;;8.10;5.07;;;;;;;27.79;48.23;101878.25;5079468;28;20514;-81
2022/08/09 07:13:44;;;;;;;8.57;4.63;;;;;;;28.32;47.01;101877.06;5079197;28;20511;-82
2022/08/09 07:16:11;;;;;;;7.97;4.53;;;;;;;28.29;47.55;101880.25;5079089;28;20060;-82
2022/08/09 07:18:37;;;;;;;10.27;4.68;;;;;;;28.41;46.94;101880.97;5078763;28;20131;-82
2022/08/09 07:21:06;;;;;;;10.15;4.85;;;;;;;28.89;46.35;101877.69;5077886;28;20071;-81
2022/08/09 07:23:32;;;;;;;7.43;4.57;;;;;;;28.61;46.32;101875.91;5079428;28;20056;-82
2022/08/09 07:25:59;;;;;;;11.30;4.93;;;;;;;29.10;45.96;101873.41;5078928;28;20503;-82
2022/08/09 07:28:27;;;;;;;9.40;4.57;;;;;;;28.47;45.87;101877.28;5080670;28;20056;-81
2022/08/09 07:30:54;;;;;;;7.65;5.28;;;;;;;28.20;46.50;101884.38;5080344;28;20068;-81
2022/08/09 07:33:21;;;;;;;8.05;4.85;;;;;;;29.22;45.43;101882.19;5079092;28;20059;-81
2022/08/09 07:35:48;;;;;;;7.20;4.80;;;;;;;29.38;44.87;101872.38;5078620;28;20072;-81
2022/08/09 07:38:16;;;;;;;7.45;5.13;;;;;;;29.39;44.35;101871.31;5078875;28;20078;-82
2022/08/09 07:40:42;;;;;;;9.05;5.22;;;;;;;28.97;43.89;101868.38;5077817;28;20102;-81
2022/08/09 07:43:09;;;;;;;12.50;4.90;;;;;;;29.12;44.22;101867.75;5077948;28;20506;-81
2022/08/09 07:45:37;;;;;;;10.98;5.70;;;;;;;27.04;47.78;101870.22;5077857;28;20117;-81
2022/08/09 07:48:08;;;;;;;6.57;5.00;;;;;;;28.60;45.14;101865.38;5078527;28;20068;-82
2022/08/09 07:50:39;;;;;;;16.58;4.95;;;;;;;28.66;45.00;101865.22;5077635;28;20083;-81
2022/08/09 07:53:06;;;;;;;6.50;4.65;;;;;;;28.57;44.73;101861.31;5077903;28;20443;-82
2022/08/09 07:55:35;;;;;;;6.35;4.53;;;;;;;29.14;43.98;101863.75;5078035;28;20499;-81
2022/08/09 07:58:02;;;;;;;8.10;4.53;;;;;;;28.42;43.70;101856.50;5078127;28;20049;-82
2022/08/09 08:00:30;;;;;;;8.18;5.03;;;;;;;28.85;44.16;101863.06;5077281;28;20098;-80
2022/08/09 08:02:57;;;;;;;9.40;4.78;;;;;;;29.05;44.25;101870.63;5079491;28;20091;-80
2022/08/09 08:05:26;;;;;;;7.13;4.70;;;;;;;29.40;43.59;101857.59;5090313;22;20083;-81
2022/08/09 08:07:56;;;;;;;12.27;4.88;;;;;;;27.81;43.90;101854.63;5038972;28;20437;-82
2022/08/09 08:10:26;;;;;;;10.27;4.70;;;;;;;27.33;45.86;101869.25;5037218;28;20053;-82
2022/08/09 08:13:15;;;;;;;6.35;4.57;;;;;;;27.11;45.88;101860.19;5019113;28;20076;-81
2022/08/09 08:15:42;;;;;;;5.55;4.80;;;;;;;27.57;46.01;101855.72;5025487;28;20258;-82
2022/08/09 08:18:09;;;;;;;6.50;4.65;;;;;;;27.48;45.68;101857.97;5039030;28;20050;-81
2022/08/09 08:20:40;;;;;;;6.55;4.82;;;;;;;27.95;44.44;101850.56;5043565;28;20144;-82
2022/08/09 08:29:40;;;;;;;7.45;4.65;;;;;;;28.44;44.44;101864.31;4918813;29;20582;-80
2022/08/09 08:32:29;;;;;;;7.65;4.40;;;;;;;28.26;43.05;101861.88;4957947;28;20046;-81
2022/08/09 08:35:02;;;;;;;7.68;4.90;;;;;;;28.13;43.65;101846.03;5034727;28;20050;-81
2022/08/09 08:37:44;;;;;;;6.80;4.60;;;;;;;28.13;44.97;101864.84;5035260;28;20539;-81
2022/08/09 08:40:25;;;;;;;8.82;4.82;;;;;;;27.39;45.44;101862.13;5038089;28;20045;-81
2022/08/09 08:42:56;;;;;;;7.78;4.90;;;;;;;28.22;43.83;101855.38;5039049;28;20051;-81
2022/08/09 08:48:44;;;;;;;9.23;4.90;;;;;;;27.99;44.25;101854.41;5038690;28;20045;-81
2022/08/09 08:51:15;;;;;;;8.50;4.30;;;;;;;28.37;44.63;101847.50;5039280;28;20072;-82
2022/08/09 08:53:51;;;;;;;7.97;4.50;;;;;;;28.71;43.91;101859.91;5052414;28;20049;-83
2022/08/09 08:56:27;;;;;;;9.18;4.95;;;;;;;28.69;43.67;101845.88;5035118;28;20050;-79
2022/08/09 08:58:58;;;;;;;9.88;4.50;;;;;;;28.50;43.01;101852.56;5021915;28;20046;-82
2022/08/09 09:01:39;;;;;;;11.50;4.90;;;;;;;28.80;43.67;101854.09;5031077;28;20042;-82
2022/08/09 09:04:14;;;;;;;8.45;4.65;;;;;;;29.34;43.36;101861.28;5031404;28;20374;-82
2022/08/09 09:06:45;;;;;;;10.10;5.20;;;;;;;29.15;43.48;101876.16;5030521;28;20045;-80
2022/08/09 09:09:15;;;;;;;10.30;4.90;;;;;;;28.03;44.87;101852.84;5027849;28;20045;-80
2022/08/09 09:11:43;;;;;;;7.28;5.25;;;;;;;28.58;43.89;101865.63;5037478;28;20046;-80
2022/08/09 09:14:17;;;;;;;9.15;5.13;;;;;;;28.60;43.54;101863.50;5025231;28;20381;-81
2022/08/09 09:16:45;;;;;;;9.15;4.75;;;;;;;29.42;43.41;101864.66;5050859;28;20075;-82
2022/08/09 09:19:12;;;;;;;8.65;4.90;;;;;;;29.68;43.34;101863.88;5058948;28;20047;-81
2022/08/09 09:22:02;;;;;;;7.80;4.20;;;;;;;29.79;42.47;101864.78;5035175;28;20522;-82
2022/08/09 09:24:31;;;;;;;6.25;4.97;;;;;;;29.16;42.68;101861.63;5034401;28;20500;-83
2022/08/09 09:27:02;;;;;;;10.30;4.75;;;;;;;28.47;44.55;101863.84;5038070;28;20072;-84
2022/08/09 09:29:31;;;;;;;8.52;4.72;;;;;;;28.76;43.78;101869.13;5040689;28;20060;-83
2022/08/09 09:32:00;;;;;;;9.98;5.20;;;;;;;29.14;42.93;101850.28;5045120;28;20069;-86
2022/08/09 09:34:30;;;;;;;11.07;4.90;;;;;;;28.55;43.87;101839.19;5050691;28;20045;-82
2022/08/09 09:36:57;;;;;;;9.82;4.60;;;;;;;28.81;43.91;101853.84;5045703;28;20050;-80
2022/08/09 09:39:26;;;;;;;8.82;5.13;;;;;;;27.94;44.48;101854.31;5059382;28;20045;-82
2022/08/09 09:41:54;;;;;;;7.25;4.93;;;;;;;27.92;43.76;101845.66;5058225;28;20065;-82
2022/08/09 09:44:31;;;;;;;13.82;5.75;;;;;;;27.62;42.86;101843.25;5059853;28;20056;-81
2022/08/09 09:47:09;;;;;;;8.18;4.90;;;;;;;27.95;42.95;101826.34;5060148;28;20458;-80
2022/08/09 09:49:53;;;;;;;10.80;5.00;;;;;;;28.01;42.56;101844.22;5061350;28;20709;-83
2022/08/09 09:55:05;;;;;;;8.57;4.85;;;;;;;27.08;44.05;101828.41;5051705;28;20095;-80
2022/08/09 09:58:06;;;;;;;10.35;5.38;;;;;;;27.31;43.78;101849.88;5063023;28;20045;-80
2022/08/09 10:00:53;;;;;;;11.18;4.85;;;;;;;26.78;44.59;101834.75;5061762;28;20084;-81
2022/08/09 10:03:45;;;;;;;10.73;5.25;;;;;;;27.29;43.58;101849.28;5062202;28;20052;-83
2022/08/09 10:06:41;;;;;;;9.40;4.80;;;;;;;27.36;44.19;101836.53;5063123;28;20188;-84
2022/08/09 10:09:12;;;;;;;8.20;4.88;;;;;;;27.72;43.96;101839.94;5032741;28;20052;-83
2022/08/09 10:11:45;;;;;;;7.40;4.65;;;;;;;28.13;43.08;101832.56;5064242;28;20045;-84
2022/08/09 10:14:42;;;;;;;8.18;4.95;;;;;;;27.49;43.45;101851.53;5063324;28;20181;-84
2022/08/09 10:17:13;;;;;;;7.30;4.93;;;;;;;26.90;44.46;101820.50;5064096;28;20063;-84
2022/08/09 10:19:54;;;;;;;7.32;5.00;;;;;;;27.57;43.64;101834.22;5062918;28;20095;-80
2022/08/09 10:22:33;;;;;;;8.02;5.20;;;;;;;27.75;43.55;101842.94;5065833;28;20052;-82
2022/08/09 10:25:18;;;;;;;6.93;4.68;;;;;;;27.67;43.50;101854.09;5060431;28;20045;-81
2022/08/09 10:27:49;;;;;;;7.80;5.20;;;;;;;27.46;43.75;101840.44;5060197;28;20083;-82
2022/08/09 10:30:16;;;;;;;9.48;5.10;;;;;;;27.89;43.31;101832.69;5058742;28;20530;-80
2022/08/09 10:32:50;;;;;;;8.55;4.97;;;;;;;28.02;42.54;101840.47;5057757;28;20053;-81
2022/08/09 10:35:25;;;;;;;7.78;5.10;;;;;;;27.44;43.48;101833.44;5056747;28;20480;-79
2022/08/09 10:38:06;;;;;;;8.50;4.70;;;;;;;27.50;43.40;101841.63;5060155;28;20061;-82
2022/08/09 10:40:42;;;;;;;8.90;4.53;;;;;;;27.68;43.15;101850.34;5062160;28;20163;-81
2022/08/09 10:43:09;;;;;;;9.02;4.80;;;;;;;27.85;43.08;101825.38;5060975;28;20060;-83
2022/08/09 10:45:46;;;;;;;9.70;4.95;;;;;;;27.30;43.12;101831.28;5060471;28;20106;-82
2022/08/09 10:48:50;;;;;;;5.68;4.72;;;;;;;27.37;42.57;101851.59;5058222;28;20065;-83
2022/08/09 10:51:45;;;;;;;6.60;5.10;;;;;;;27.47;43.73;101836.72;5058347;28;20116;-83
2022/08/09 10:54:15;;;;;;;7.95;4.75;;;;;;;27.40;44.36;101831.50;5062685;28;20053;-82
2022/08/09 10:56:55;;;;;;;7.78;5.15;;;;;;;27.48;44.10;101827.59;5061199;28;20088;-83
2022/08/09 10:59:37;;;;;;;6.45;4.75;;;;;;;27.75;44.37;101845.66;5060282;28;20117;-82
2022/08/09 11:02:06;;;;;;;7.28;4.93;;;;;;;27.29;43.26;101846.59;5062296;28;20053;-82
2022/08/09 11:04:36;;;;;;;11.85;5.03;;;;;;;27.00;44.39;101818.84;5061610;28;20045;-81
2022/08/09 11:07:34;;;;;;;7.72;4.90;;;;;;;27.65;44.67;101845.44;5060865;28;20057;-83
2022/08/09 11:10:09;;;;;;;5.38;4.60;;;;;;;27.65;44.40;101839.25;5061283;28;20045;-82
2022/08/09 11:12:43;;;;;;;7.43;4.80;;;;;;;27.81;43.31;101835.78;5061030;28;20052;-83
2022/08/09 11:15:28;;;;;;;10.52;4.90;;;;;;;27.77;44.68;101839.22;5061215;28;20068;-82
2022/08/09 11:18:14;;;;;;;7.25;4.88;;;;;;;27.79;44.51;101835.22;5061009;28;20055;-84
2022/08/09 11:21:02;;;;;;;7.55;4.43;;;;;;;27.72;44.50;101818.41;5061958;28;20056;-84
2022/08/09 11:24:03;;;;;;;8.18;4.68;;;;;;;27.67;44.21;101818.31;5062450;28;20060;-83
2022/08/09 11:26:55;;;;;;;9.15;4.80;;;;;;;27.75;44.53;101823.31;5063924;28;20060;-83
2022/08/09 11:29:55;;;;;;;11.40;4.60;;;;;;;27.79;43.88;101832.53;5062825;28;20040;-84
2022/08/09 11:32:43;;;;;;;8.68;4.82;;;;;;;27.88;43.67;101823.03;5060997;28;20099;-83
2022/08/09 11:35:37;;;;;;;7.30;5.00;;;;;;;28.08;43.34;101831.41;5061369;28;20044;-82
2022/08/09 11:38:19;;;;;;;9.30;5.18;;;;;;;28.11;42.85;101829.31;5059780;28;20056;-83
2022/08/09 11:40:53;;;;;;;7.75;4.97;;;;;;;27.88;43.56;101831.09;5061183;28;20057;-84
2022/08/09 11:43:46;;;;;;;12.90;4.75;;;;;;;27.46;42.79;101818.94;5060271;28;20045;-80
2022/08/09 11:46:21;;;;;;;8.15;4.97;;;;;;;27.87;41.93;101813.31;5061087;28;20080;-83
2022/08/09 11:48:57;;;;;;;7.43;5.18;;;;;;;28.29;41.16;101807.56;5059836;28;20104;-83
2022/08/09 11:51:46;;;;;;;7.40;4.53;;;;;;;28.12;41.64;101817.47;5062705;28;20111;-84
2022/08/09 11:54:29;;;;;;;8.38;5.18;;;;;;;27.78;42.47;101813.94;5056354;28;20064;-84